AVA9298 SKBO-SKCC
Flight info
| Callsign | AVA9298 |
|---|---|
| Flight time | 0h 45m |
| Altitude | 29000 |
| Route | OSUSU4R KOVBU UW1 PIE DCT ESNUT ESNUT2B |
| Aircraft | A319/M-SDE3FGHIRWY/LB1 |
Departure
| Time | 2026-04-30 22:10 |
|---|---|
| Airport | El Dorado International Airport (SKBO) |
Arrival
| Time | 2026-04-30 22:56 |
|---|---|
| Airport | Camilo Daza International Airport (SKCC) |
| Time | Latitude | Longitude | Altitude | Speed | Heading |
|---|---|---|---|---|---|
| 2026-04-30 21:46 | 4.69785 | -74.14534 | 8373 ft | 0 kts | 39° |
| 2026-04-30 22:00 | 4.69765 | -74.14550 | 8373 ft | 3 kts | 36° |
| 2026-04-30 22:00 | 4.69722 | -74.14543 | 8373 ft | 4 kts | 309° |
| 2026-04-30 22:00 | 4.69718 | -74.14538 | 8373 ft | 0 kts | 307° |
| 2026-04-30 22:05 | 4.69724 | -74.14545 | 8373 ft | 2 kts | 308° |
| 2026-04-30 22:05 | 4.69767 | -74.14603 | 8373 ft | 17 kts | 305° |
| 2026-04-30 22:05 | 4.69836 | -74.14692 | 8373 ft | 15 kts | 307° |
| 2026-04-30 22:06 | 4.69891 | -74.14767 | 8373 ft | 13 kts | 306° |
| 2026-04-30 22:06 | 4.70053 | -74.14696 | 8373 ft | 15 kts | 36° |
| 2026-04-30 22:06 | 4.70139 | -74.14630 | 8373 ft | 15 kts | 38° |
| 2026-04-30 22:07 | 4.70224 | -74.14565 | 8365 ft | 15 kts | 38° |
| 2026-04-30 22:07 | 4.70310 | -74.14499 | 8373 ft | 16 kts | 37° |
| 2026-04-30 22:07 | 4.70398 | -74.14434 | 8373 ft | 16 kts | 37° |
| 2026-04-30 22:07 | 4.70485 | -74.14368 | 8373 ft | 17 kts | 37° |
| 2026-04-30 22:08 | 4.70599 | -74.14335 | 8372 ft | 19 kts | 351° |
| 2026-04-30 22:08 | 4.70685 | -74.14341 | 8372 ft | 5 kts | 81° |
| 2026-04-30 22:08 | 4.70668 | -74.14322 | 8372 ft | 0 kts | 126° |
| 2026-04-30 22:09 | 4.70649 | -74.14297 | 8372 ft | 15 kts | 126° |
| 2026-04-30 22:10 | 4.70433 | -74.14012 | 8370 ft | 85 kts | 127° |
| 2026-04-30 22:10 | 4.69955 | -74.13381 | 8372 ft | 140 kts | 127° |
| 2026-04-30 22:10 | 4.69311 | -74.12540 | 8784 ft | 152 kts | 130° |
| 2026-04-30 22:10 | 4.68806 | -74.11598 | 9320 ft | 159 kts | 101° |
| 2026-04-30 22:11 | 4.69596 | -74.09592 | 10170 ft | 167 kts | 35° |
| 2026-04-30 22:11 | 4.70677 | -74.09139 | 10621 ft | 170 kts | 20° |
| 2026-04-30 22:11 | 4.71801 | -74.08769 | 11099 ft | 170 kts | 22° |
| 2026-04-30 22:12 | 4.72932 | -74.08398 | 11496 ft | 174 kts | 22° |
| 2026-04-30 22:12 | 4.74137 | -74.07998 | 11663 ft | 191 kts | 22° |
| 2026-04-30 22:12 | 4.75474 | -74.07551 | 11813 ft | 214 kts | 22° |
| 2026-04-30 22:12 | 4.76961 | -74.07052 | 11988 ft | 237 kts | 21° |
| 2026-04-30 22:13 | 4.78585 | -74.06509 | 12304 ft | 253 kts | 20° |
| 2026-04-30 22:13 | 4.80321 | -74.05926 | 12445 ft | 275 kts | 21° |
| 2026-04-30 22:13 | 4.82180 | -74.05296 | 12755 ft | 298 kts | 21° |
| 2026-04-30 22:13 | 4.84222 | -74.04606 | 13035 ft | 322 kts | 21° |
| 2026-04-30 22:14 | 4.86421 | -74.03865 | 13278 ft | 345 kts | 21° |
| 2026-04-30 22:14 | 4.88753 | -74.03079 | 13666 ft | 360 kts | 20° |
| 2026-04-30 22:14 | 4.91153 | -74.02272 | 14236 ft | 366 kts | 21° |
| 2026-04-30 22:14 | 4.93583 | -74.01455 | 14859 ft | 370 kts | 21° |
| 2026-04-30 22:15 | 4.96036 | -74.00629 | 15486 ft | 374 kts | 21° |
| 2026-04-30 22:15 | 4.98514 | -73.99792 | 16094 ft | 378 kts | 21° |
| 2026-04-30 22:15 | 5.01016 | -73.98945 | 16699 ft | 381 kts | 21° |
| 2026-04-30 22:15 | 5.03565 | -73.98142 | 17306 ft | 386 kts | 19° |
| 2026-04-30 22:16 | 5.06171 | -73.97442 | 17920 ft | 390 kts | 17° |
| 2026-04-30 22:16 | 5.08821 | -73.96800 | 18475 ft | 394 kts | 16° |
| 2026-04-30 22:17 | 5.16926 | -73.94905 | 20022 ft | 403 kts | 16° |
| 2026-04-30 22:17 | 5.19669 | -73.94238 | 20549 ft | 407 kts | 17° |
| 2026-04-30 22:17 | 5.25211 | -73.92850 | 21589 ft | 414 kts | 17° |
| 2026-04-30 22:18 | 5.28019 | -73.92144 | 22059 ft | 418 kts | 16° |
| 2026-04-30 22:18 | 5.33707 | -73.90720 | 23047 ft | 425 kts | 17° |
| 2026-04-30 22:19 | 5.39494 | -73.89277 | 23903 ft | 432 kts | 16° |
| 2026-04-30 22:19 | 5.42418 | -73.88550 | 24258 ft | 434 kts | 15° |
| 2026-04-30 22:19 | 5.48318 | -73.87081 | 25005 ft | 440 kts | 15° |
| 2026-04-30 22:20 | 5.51298 | -73.86330 | 25425 ft | 441 kts | 17° |
| 2026-04-30 22:20 | 5.56877 | -73.83803 | 26146 ft | 444 kts | 31° |
| 2026-04-30 22:20 | 5.59571 | -73.82269 | 26507 ft | 446 kts | 30° |
| 2026-04-30 22:21 | 5.62286 | -73.80729 | 26842 ft | 449 kts | 30° |
| 2026-04-30 22:21 | 5.65019 | -73.79183 | 27211 ft | 452 kts | 30° |
| 2026-04-30 22:21 | 5.67768 | -73.77631 | 27527 ft | 455 kts | 29° |
| 2026-04-30 22:21 | 5.70536 | -73.76067 | 27853 ft | 458 kts | 29° |
| 2026-04-30 22:22 | 5.73318 | -73.74495 | 28167 ft | 461 kts | 29° |
| 2026-04-30 22:22 | 5.76119 | -73.72911 | 28509 ft | 463 kts | 29° |
| 2026-04-30 22:22 | 5.78897 | -73.71336 | 28825 ft | 465 kts | 29° |
| 2026-04-30 22:22 | 5.81717 | -73.69737 | 28952 ft | 464 kts | 28° |
| 2026-04-30 22:23 | 5.87260 | -73.66600 | 28944 ft | 454 kts | 28° |
| 2026-04-30 22:23 | 5.92758 | -73.63490 | 28962 ft | 452 kts | 28° |
| 2026-04-30 22:24 | 5.98235 | -73.60387 | 28964 ft | 451 kts | 28° |
| 2026-04-30 22:24 | 6.03702 | -73.57283 | 28929 ft | 451 kts | 28° |
| 2026-04-30 22:25 | 6.09173 | -73.54187 | 28931 ft | 451 kts | 28° |
| 2026-04-30 22:25 | 6.14636 | -73.51097 | 28907 ft | 451 kts | 28° |
| 2026-04-30 22:26 | 6.22830 | -73.46449 | 28897 ft | 451 kts | 28° |
| 2026-04-30 22:27 | 6.28302 | -73.43341 | 28866 ft | 452 kts | 28° |
| 2026-04-30 22:27 | 6.36536 | -73.38666 | 28871 ft | 454 kts | 28° |
| 2026-04-30 22:28 | 6.44784 | -73.33989 | 28874 ft | 454 kts | 28° |
| 2026-04-30 22:29 | 6.55768 | -73.27742 | 28866 ft | 453 kts | 28° |
| 2026-04-30 22:31 | 6.74919 | -73.16861 | 28875 ft | 452 kts | 28° |
| 2026-04-30 22:32 | 6.88602 | -73.09077 | 28875 ft | 452 kts | 28° |
| 2026-04-30 22:33 | 7.02422 | -73.01509 | 28930 ft | 452 kts | 27° |
| 2026-04-30 22:35 | 7.16276 | -72.93926 | 27473 ft | 454 kts | 28° |
| 2026-04-30 22:36 | 7.27217 | -72.87923 | 24781 ft | 442 kts | 30° |
| 2026-04-30 22:36 | 7.29910 | -72.86448 | 24133 ft | 439 kts | 30° |
| 2026-04-30 22:37 | 7.37842 | -72.82099 | 22269 ft | 425 kts | 30° |
| 2026-04-30 22:37 | 7.40426 | -72.80681 | 21752 ft | 420 kts | 31° |
| 2026-04-30 22:37 | 7.45505 | -72.77890 | 20710 ft | 413 kts | 30° |
| 2026-04-30 22:38 | 7.50523 | -72.75137 | 19637 ft | 409 kts | 30° |
| 2026-04-30 22:38 | 7.55456 | -72.72415 | 18528 ft | 405 kts | 31° |
| 2026-04-30 22:39 | 7.57921 | -72.71041 | 17898 ft | 404 kts | 31° |
| 2026-04-30 22:39 | 7.65126 | -72.67008 | 16282 ft | 391 kts | 33° |
| 2026-04-30 22:40 | 7.69229 | -72.60374 | 14292 ft | 383 kts | 87° |
| 2026-04-30 22:41 | 7.69204 | -72.52645 | 12532 ft | 373 kts | 65° |
| 2026-04-30 22:41 | 7.73126 | -72.49467 | 11314 ft | 375 kts | 14° |
| 2026-04-30 22:42 | 7.82422 | -72.50128 | 9373 ft | 359 kts | 355° |
| 2026-04-30 22:43 | 7.87206 | -72.50665 | 8962 ft | 327 kts | 355° |
| 2026-04-30 22:43 | 7.91462 | -72.51155 | 8949 ft | 286 kts | 354° |
| 2026-04-30 22:44 | 7.95110 | -72.51256 | 8945 ft | 242 kts | 6° |
| 2026-04-30 22:45 | 8.01462 | -72.50858 | 7762 ft | 224 kts | 6° |
| 2026-04-30 22:45 | 8.04558 | -72.50668 | 7069 ft | 222 kts | 5° |
| 2026-04-30 22:46 | 8.07448 | -72.51543 | 6322 ft | 223 kts | 318° |
| 2026-04-30 22:47 | 8.08038 | -72.56492 | 5434 ft | 177 kts | 231° |
| 2026-04-30 22:47 | 8.06094 | -72.57885 | 4840 ft | 173 kts | 195° |
| 2026-04-30 22:48 | 8.03737 | -72.57793 | 4208 ft | 173 kts | 158° |
| 2026-04-30 22:49 | 8.00538 | -72.56093 | 3287 ft | 175 kts | 167° |
| 2026-04-30 22:49 | 7.96926 | -72.55306 | 2704 ft | 178 kts | 166° |
| 2026-04-30 22:50 | 7.92259 | -72.54268 | 2704 ft | 169 kts | 165° |
| 2026-04-30 22:51 | 7.89952 | -72.53754 | 2657 ft | 170 kts | 166° |
| 2026-04-30 22:51 | 7.87724 | -72.53262 | 2608 ft | 161 kts | 166° |
| 2026-04-30 22:52 | 7.86638 | -72.53022 | 2604 ft | 159 kts | 166° |
| 2026-04-30 22:52 | 7.84749 | -72.51986 | 2689 ft | 158 kts | 126° |
| 2026-04-30 22:53 | 7.84308 | -72.49958 | 2685 ft | 139 kts | 79° |
| 2026-04-30 22:53 | 7.85296 | -72.48422 | 2680 ft | 132 kts | 38° |
| 2026-04-30 22:53 | 7.86127 | -72.48024 | 2492 ft | 133 kts | 15° |
| 2026-04-30 22:54 | 7.87930 | -72.48237 | 2118 ft | 135 kts | 334° |
| 2026-04-30 22:55 | 7.90338 | -72.49714 | 1507 ft | 132 kts | 329° |
| 2026-04-30 22:55 | 7.91885 | -72.50646 | 1143 ft | 127 kts | 330° |
| 2026-04-30 22:56 | 7.93077 | -72.51370 | 1039 ft | 34 kts | 328° |
| 2026-04-30 22:56 | 7.93087 | -72.51368 | 1039 ft | 16 kts | 149° |
| 2026-04-30 22:57 | 7.92803 | -72.51197 | 1034 ft | 30 kts | 146° |
| 2026-04-30 22:57 | 7.92814 | -72.50942 | 1032 ft | 0 kts | 59° |
| 2026-04-30 22:59 | 7.92827 | -72.50921 | 1032 ft | 8 kts | 57° |